Time;durP1;ratioP1;P1;durP2;ratioP2;P2;SDS_P1;SDS_P2;PMS_P1;PMS_P2;Temp;Humidity;BMP_temperature;BMP_pressure;BME280_temperature;BME280_humidity;BME280_pressure;Samples;Min_cycle;Max_cycle;Signal;HPM_P1;HPM_P2
2023/07/10 00:01:27;;;;;;;0.10;0.10;;;24.90;99.90;;;;;;5024756;28;20179;-82
2023/07/10 00:03:53;;;;;;;0.10;0.10;;;25.00;99.90;;;;;;5025224;28;20191;-82
2023/07/10 00:06:18;;;;;;;0.10;0.10;;;25.10;99.90;;;;;;5024887;28;20206;-82
2023/07/10 00:08:44;;;;;;;0.10;0.10;;;25.20;99.90;;;;;;5025032;28;20318;-82
2023/07/10 00:11:16;;;;;;;0.10;0.10;;;25.20;99.90;;;;;;5023752;28;20198;-82
2023/07/10 00:13:42;;;;;;;0.10;0.10;;;25.10;99.90;;;;;;5027330;28;20221;-82
2023/07/10 00:16:20;;;;;;;0.10;0.10;;;25.00;99.90;;;;;;5025331;28;20193;-82
2023/07/10 00:18:46;;;;;;;0.10;0.10;;;25.00;99.90;;;;;;5026125;28;20218;-82
2023/07/10 00:21:12;;;;;;;0.10;0.10;;;24.90;99.90;;;;;;5024160;28;20333;-82
2023/07/10 00:23:38;;;;;;;0.10;0.10;;;24.90;99.90;;;;;;5024561;28;20289;-82
2023/07/10 00:26:23;;;;;;;0.10;0.10;;;24.90;99.90;;;;;;5024826;28;20218;-82
2023/07/10 00:28:51;;;;;;;0.10;0.10;;;24.80;99.90;;;;;;5024619;28;20217;-82
2023/07/10 00:31:17;;;;;;;0.10;0.10;;;24.80;99.90;;;;;;5023845;28;20190;-82
2023/07/10 00:33:47;;;;;;;0.10;0.10;;;24.80;99.90;;;;;;5024166;28;20787;-82
2023/07/10 00:36:35;;;;;;;0.10;0.10;;;24.80;99.90;;;;;;5023896;28;20194;-82
2023/07/10 00:39:18;;;;;;;0.10;0.10;;;24.70;99.90;;;;;;5022840;28;20590;-82
2023/07/10 00:41:48;;;;;;;0.10;0.10;;;24.70;99.90;;;;;;5026997;28;20240;-82
2023/07/10 00:44:14;;;;;;;0.10;0.10;;;24.60;99.90;;;;;;5023564;28;20267;-82
2023/07/10 00:46:52;;;;;;;0.10;0.10;;;24.60;99.90;;;;;;5025305;28;20178;-82
2023/07/10 00:49:50;;;;;;;0.10;0.10;;;24.50;99.90;;;;;;5021142;28;20751;-82
2023/07/10 00:52:29;;;;;;;0.10;0.10;;;24.50;99.90;;;;;;5024551;28;20238;-82
2023/07/10 00:54:58;;;;;;;0.10;0.10;;;24.40;99.90;;;;;;5022824;28;20197;-82
2023/07/10 00:57:33;;;;;;;0.10;0.10;;;24.20;99.90;;;;;;5023180;28;20214;-82
2023/07/10 01:00:00;;;;;;;0.10;0.10;;;24.10;99.90;;;;;;5024134;28;20245;-82
2023/07/10 01:02:26;;;;;;;0.10;0.10;;;23.90;99.90;;;;;;5025300;28;20193;-82
2023/07/10 01:04:59;;;;;;;0.10;0.10;;;24.00;99.90;;;;;;5024751;28;20250;-82
2023/07/10 01:07:27;;;;;;;0.10;0.10;;;24.00;99.90;;;;;;5026207;28;20271;-82
2023/07/10 01:10:11;;;;;;;0.10;0.10;;;24.10;99.90;;;;;;5023827;28;20202;-82
2023/07/10 01:12:40;;;;;;;0.10;0.10;;;24.10;99.90;;;;;;5022506;28;20196;-82
2023/07/10 01:15:06;;;;;;;0.10;0.10;;;24.00;99.90;;;;;;5022375;28;20205;-82
2023/07/10 01:17:33;;;;;;;0.10;0.10;;;23.70;99.90;;;;;;5023667;28;20650;-82
2023/07/10 01:20:03;;;;;;;0.10;0.10;;;23.70;99.90;;;;;;5024409;28;20218;-82
2023/07/10 01:22:29;;;;;;;0.10;0.10;;;23.60;99.90;;;;;;5021845;28;20183;-82
2023/07/10 01:24:55;;;;;;;0.10;0.10;;;23.70;99.90;;;;;;5022412;28;20193;-82
2023/07/10 01:27:22;;;;;;;0.10;0.10;;;23.80;99.90;;;;;;5023144;28;20242;-82
2023/07/10 01:29:57;;;;;;;0.10;0.10;;;23.90;99.90;;;;;;5024435;28;20187;-82
2023/07/10 01:32:27;;;;;;;0.10;0.10;;;23.80;99.90;;;;;;5023251;28;20225;-82
2023/07/10 01:34:55;;;;;;;0.10;0.10;;;24.00;99.90;;;;;;5023358;28;20196;-82
2023/07/10 01:37:21;;;;;;;0.10;0.10;;;23.80;99.90;;;;;;5022066;28;20261;-82
2023/07/10 01:39:48;;;;;;;0.10;0.10;;;23.70;99.90;;;;;;5022113;28;20223;-81
2023/07/10 01:42:14;;;;;;;0.10;0.10;;;23.70;99.90;;;;;;5022060;28;20186;-82
2023/07/10 01:44:42;;;;;;;0.10;0.10;;;23.50;99.90;;;;;;5024705;28;20186;-82
2023/07/10 01:47:11;;;;;;;0.10;0.10;;;23.50;99.90;;;;;;5025390;28;20230;-82
2023/07/10 01:49:51;;;;;;;0.10;0.10;;;23.40;99.90;;;;;;5025004;28;20194;-82
2023/07/10 01:52:19;;;;;;;0.10;0.10;;;23.40;99.90;;;;;;5021056;28;20272;-82
2023/07/10 01:54:46;;;;;;;0.10;0.10;;;23.50;99.90;;;;;;5020534;28;20194;-82
2023/07/10 01:57:13;;;;;;;0.10;0.10;;;23.50;99.90;;;;;;5023327;28;20225;-82
2023/07/10 01:59:39;;;;;;;0.10;0.10;;;23.30;99.90;;;;;;5023279;28;21086;-82
2023/07/10 02:02:05;;;;;;;0.10;0.10;;;23.20;99.90;;;;;;5021149;28;20194;-82
2023/07/10 02:04:30;;;;;;;0.10;0.10;;;23.10;99.90;;;;;;5023443;28;20183;-82
2023/07/10 02:06:56;;;;;;;0.10;0.10;;;23.10;99.90;;;;;;5021349;28;20774;-82
2023/07/10 02:09:27;;;;;;;0.10;0.10;;;23.00;99.90;;;;;;5021238;28;20189;-82
2023/07/10 02:11:53;;;;;;;0.10;0.10;;;23.00;99.90;;;;;;5021451;28;20209;-82
2023/07/10 02:14:19;;;;;;;0.10;0.10;;;23.00;99.90;;;;;;5020549;28;20653;-82
2023/07/10 02:16:45;;;;;;;0.10;0.10;;;23.00;99.90;;;;;;5021755;28;20214;-82
2023/07/10 02:19:10;;;;;;;0.10;0.10;;;22.90;99.90;;;;;;5020747;28;20206;-82
2023/07/10 02:21:36;;;;;;;0.10;0.10;;;22.90;99.90;;;;;;5021937;28;20186;-82
2023/07/10 02:24:02;;;;;;;0.10;0.10;;;22.90;99.90;;;;;;5022214;28;20187;-82
2023/07/10 02:26:29;;;;;;;0.20;0.20;;;22.90;99.90;;;;;;5021255;28;20187;-82
2023/07/10 02:28:55;;;;;;;0.10;0.10;;;22.70;99.90;;;;;;5023171;28;20183;-81
2023/07/10 02:31:21;;;;;;;0.10;0.10;;;22.60;99.90;;;;;;5020910;28;20186;-82
2023/07/10 02:33:47;;;;;;;0.10;0.10;;;22.60;99.90;;;;;;5021133;28;20190;-81
2023/07/10 02:36:13;;;;;;;0.10;0.10;;;22.60;99.90;;;;;;5021433;28;20186;-81
2023/07/10 02:38:38;;;;;;;1.80;1.80;;;22.60;99.90;;;;;;5021444;28;20287;-82
2023/07/10 02:41:04;;;;;;;0.10;0.10;;;22.60;99.90;;;;;;5030356;28;20236;-82
2023/07/10 02:43:29;;;;;;;0.10;0.10;;;22.50;99.90;;;;;;5020975;28;20214;-81
2023/07/10 02:45:55;;;;;;;0.10;0.10;;;22.40;99.90;;;;;;5022497;28;20178;-81
2023/07/10 02:48:20;;;;;;;0.10;0.10;;;22.20;99.90;;;;;;5023939;28;20202;-81
2023/07/10 02:50:46;;;;;;;0.10;0.10;;;22.10;99.90;;;;;;5020845;28;20182;-81
2023/07/10 02:53:11;;;;;;;0.10;0.10;;;22.10;99.90;;;;;;5022210;28;20178;-81
2023/07/10 02:55:38;;;;;;;0.10;0.10;;;22.10;99.90;;;;;;5023838;28;20182;-81
2023/07/10 02:58:05;;;;;;;0.10;0.10;;;22.00;99.90;;;;;;5026166;28;20218;-82
2023/07/10 03:00:30;;;;;;;0.10;0.10;;;22.10;99.90;;;;;;5023200;28;20213;-82
2023/07/10 03:02:56;;;;;;;0.10;0.10;;;22.00;99.90;;;;;;5025367;28;20186;-82
2023/07/10 03:05:22;;;;;;;0.10;0.10;;;21.90;99.90;;;;;;5022690;28;20190;-81
2023/07/10 03:07:48;;;;;;;0.10;0.10;;;21.90;99.90;;;;;;5025840;28;20628;-81
2023/07/10 03:10:14;;;;;;;0.10;0.10;;;22.00;99.90;;;;;;5024449;28;20194;-82
2023/07/10 03:12:40;;;;;;;0.10;0.10;;;22.10;99.90;;;;;;5025663;28;20246;-81
2023/07/10 03:15:06;;;;;;;0.10;0.10;;;22.10;99.90;;;;;;5025697;28;20182;-82
2023/07/10 03:17:32;;;;;;;0.10;0.10;;;22.20;99.90;;;;;;5025324;28;20202;-81
2023/07/10 03:19:57;;;;;;;0.10;0.10;;;22.20;99.90;;;;;;5023086;28;20298;-82
2023/07/10 03:22:23;;;;;;;0.10;0.10;;;22.30;99.90;;;;;;5023554;28;20277;-82
2023/07/10 03:24:54;;;;;;;0.10;0.10;;;22.30;99.90;;;;;;5024960;28;20183;-82
2023/07/10 03:27:20;;;;;;;0.20;0.20;;;22.40;99.90;;;;;;5027186;28;20252;-81
2023/07/10 03:29:45;;;;;;;0.10;0.10;;;22.50;99.90;;;;;;5024481;28;20190;-81
2023/07/10 03:32:11;;;;;;;0.10;0.10;;;22.30;99.90;;;;;;5024695;28;20613;-82
2023/07/10 03:34:36;;;;;;;0.10;0.10;;;22.20;99.90;;;;;;5024504;28;20248;-81
2023/07/10 03:37:03;;;;;;;0.10;0.10;;;22.20;99.90;;;;;;5021676;28;20210;-82
2023/07/10 03:39:28;;;;;;;0.10;0.10;;;22.00;99.90;;;;;;5025752;28;20624;-81
2023/07/10 03:41:54;;;;;;;0.10;0.10;;;21.90;99.90;;;;;;5025706;28;20246;-81
2023/07/10 03:44:20;;;;;;;0.10;0.10;;;21.90;99.90;;;;;;5023599;28;20562;-81
2023/07/10 03:46:45;;;;;;;0.10;0.10;;;21.80;99.90;;;;;;5025207;28;20189;-81
2023/07/10 03:49:11;;;;;;;0.10;0.10;;;21.90;99.90;;;;;;5024703;28;20221;-81
2023/07/10 03:51:36;;;;;;;0.10;0.10;;;22.00;99.90;;;;;;5023076;28;20195;-81
2023/07/10 03:54:02;;;;;;;0.10;0.10;;;22.00;99.90;;;;;;5022825;28;20236;-81
2023/07/10 03:56:28;;;;;;;0.10;0.10;;;22.10;99.90;;;;;;5022673;28;20191;-82
2023/07/10 03:58:53;;;;;;;0.10;0.10;;;22.20;99.90;;;;;;5028623;28;20213;-82
2023/07/10 04:01:19;;;;;;;0.60;0.60;;;22.00;99.90;;;;;;5027266;28;20620;-81
2023/07/10 04:03:44;;;;;;;0.10;0.10;;;22.10;99.90;;;;;;5029789;28;20182;-81
2023/07/10 04:06:13;;;;;;;0.10;0.10;;;22.00;99.90;;;;;;5024229;28;20272;-81
2023/07/10 04:08:40;;;;;;;0.30;0.30;;;22.00;99.90;;;;;;5024248;28;20261;-81
2023/07/10 04:11:12;;;;;;;0.10;0.10;;;22.20;99.90;;;;;;5025715;28;20186;-81
2023/07/10 04:13:39;;;;;;;0.10;0.10;;;22.50;99.90;;;;;;5033713;28;20248;-82
2023/07/10 04:16:15;;;;;;;0.10;0.10;;;22.80;99.90;;;;;;5026633;28;20664;-81
2023/07/10 04:18:41;;;;;;;0.10;0.10;;;22.90;99.90;;;;;;5023330;28;20297;-82
2023/07/10 04:21:20;;;;;;;0.10;0.10;;;22.90;99.90;;;;;;5025216;28;20193;-82
2023/07/10 04:23:46;;;;;;;0.10;0.10;;;23.20;99.90;;;;;;5016228;28;20441;-81
2023/07/10 04:26:22;;;;;;;0.10;0.10;;;23.50;99.90;;;;;;5018835;28;20195;-81
2023/07/10 04:28:50;;;;;;;0.10;0.10;;;23.70;99.90;;;;;;5022778;28;20265;-82
2023/07/10 04:31:17;;;;;;;0.10;0.10;;;23.70;99.90;;;;;;5019489;28;20209;-81
2023/07/10 04:33:43;;;;;;;0.10;0.10;;;23.80;99.90;;;;;;5022733;28;20252;-82
2023/07/10 04:36:09;;;;;;;0.10;0.10;;;23.60;99.90;;;;;;5025173;28;20190;-82
2023/07/10 04:38:35;;;;;;;0.93;0.93;;;23.50;99.90;;;;;;5021468;28;20212;-82
2023/07/10 04:41:04;;;;;;;0.10;0.10;;;23.20;99.90;;;;;;5020021;28;20277;-83
2023/07/10 04:43:31;;;;;;;0.10;0.10;;;23.30;99.90;;;;;;5019978;28;20319;-85
2023/07/10 04:45:58;;;;;;;0.10;0.10;;;23.30;99.90;;;;;;5018522;28;20186;-84
2023/07/10 04:48:24;;;;;;;0.10;0.10;;;23.50;99.90;;;;;;5021704;28;20210;-83
2023/07/10 04:50:52;;;;;;;0.10;0.10;;;23.50;99.90;;;;;;5026515;28;20205;-83
2023/07/10 04:53:18;;;;;;;0.10;0.10;;;23.50;99.90;;;;;;5027629;28;20264;-83
2023/07/10 04:55:46;;;;;;;0.10;0.10;;;23.30;99.90;;;;;;5027904;28;20790;-83
2023/07/10 04:58:12;;;;;;;0.10;0.10;;;23.30;99.90;;;;;;5028153;28;20233;-83
2023/07/10 05:00:37;;;;;;;0.10;0.10;;;23.30;99.90;;;;;;5027847;28;20232;-83
2023/07/10 05:03:04;;;;;;;0.10;0.10;;;23.30;99.90;;;;;;5023109;28;20186;-83
2023/07/10 05:05:30;;;;;;;0.10;0.10;;;23.50;99.90;;;;;;5022966;28;20676;-83
2023/07/10 05:07:56;;;;;;;0.10;0.10;;;23.40;99.90;;;;;;5029012;28;20206;-83
2023/07/10 05:10:21;;;;;;;0.10;0.10;;;23.60;99.90;;;;;;5025778;28;20200;-83
2023/07/10 05:12:47;;;;;;;0.10;0.10;;;23.80;99.90;;;;;;5026926;28;20183;-83
2023/07/10 05:15:13;;;;;;;0.10;0.10;;;23.90;99.90;;;;;;5024112;28;20225;-82
2023/07/10 05:17:39;;;;;;;0.10;0.10;;;23.80;99.90;;;;;;5021446;28;20210;-83
2023/07/10 05:20:06;;;;;;;0.10;0.10;;;23.80;99.90;;;;;;5017443;28;20245;-82
2023/07/10 05:22:31;;;;;;;0.10;0.10;;;24.10;99.90;;;;;;5015426;28;20221;-83
2023/07/10 05:24:57;;;;;;;0.10;0.10;;;24.30;99.90;;;;;;5021902;28;20218;-83
2023/07/10 05:27:22;;;;;;;0.10;0.10;;;24.40;99.90;;;;;;5020314;28;20354;-82
2023/07/10 05:29:48;;;;;;;0.10;0.10;;;24.60;99.90;;;;;;5026013;28;20723;-83
2023/07/10 05:32:13;;;;;;;0.10;0.10;;;24.70;99.90;;;;;;5021650;28;20197;-83
2023/07/10 05:34:39;;;;;;;0.10;0.10;;;24.80;99.90;;;;;;5022092;28;20200;-83
2023/07/10 05:37:05;;;;;;;0.10;0.10;;;24.90;99.90;;;;;;5019043;28;20217;-82
2023/07/10 05:39:30;;;;;;;0.10;0.10;;;25.00;99.90;;;;;;5018930;28;20209;-83
2023/07/10 05:41:57;;;;;;;0.10;0.10;;;25.10;99.90;;;;;;5021298;28;20228;-82
2023/07/10 05:44:23;;;;;;;0.10;0.10;;;25.10;99.90;;;;;;5022031;28;20190;-83
2023/07/10 05:46:48;;;;;;;0.10;0.10;;;25.20;99.90;;;;;;5023240;28;20616;-83
2023/07/10 05:49:14;;;;;;;0.10;0.10;;;25.00;99.90;;;;;;5021389;28;20659;-83
2023/07/10 05:51:39;;;;;;;0.10;0.10;;;25.00;99.90;;;;;;5019079;28;20187;-83
2023/07/10 05:54:05;;;;;;;0.10;0.10;;;25.20;99.90;;;;;;5020981;28;20268;-82
2023/07/10 05:56:31;;;;;;;0.10;0.10;;;25.10;99.90;;;;;;5020882;28;20275;-83
2023/07/10 05:58:56;;;;;;;0.10;0.10;;;25.10;99.90;;;;;;5021952;28;20217;-83
2023/07/10 06:01:22;;;;;;;0.10;0.10;;;25.30;99.90;;;;;;5020669;28;20719;-83
2023/07/10 06:03:47;;;;;;;0.10;0.10;;;25.40;99.90;;;;;;5018979;28;20186;-83
2023/07/10 06:06:13;;;;;;;0.10;0.10;;;25.60;99.90;;;;;;5014664;28;20305;-83
2023/07/10 06:08:39;;;;;;;0.10;0.10;;;25.80;99.90;;;;;;5010418;28;20211;-82
2023/07/10 06:11:06;;;;;;;0.10;0.10;;;25.80;99.90;;;;;;5022924;28;20186;-82
2023/07/10 06:13:33;;;;;;;0.10;0.10;;;25.50;99.90;;;;;;5014581;28;20199;-82
2023/07/10 06:15:59;;;;;;;0.10;0.10;;;25.30;99.90;;;;;;5019902;28;20197;-82
2023/07/10 06:18:26;;;;;;;0.10;0.10;;;25.20;99.90;;;;;;5035282;28;20251;-82
2023/07/10 06:20:53;;;;;;;0.10;0.10;;;25.20;99.90;;;;;;5017491;28;20697;-82
2023/07/10 06:23:20;;;;;;;0.10;0.10;;;25.60;99.90;;;;;;5016558;28;20193;-82
2023/07/10 06:25:45;;;;;;;0.10;0.10;;;25.60;99.90;;;;;;5016112;28;20186;-83
2023/07/10 06:28:12;;;;;;;0.10;0.10;;;25.80;99.90;;;;;;5016863;28;20208;-82
2023/07/10 06:30:42;;;;;;;0.10;0.10;;;26.10;99.90;;;;;;5017684;28;20218;-83
2023/07/10 06:33:08;;;;;;;0.10;0.10;;;25.90;99.90;;;;;;5021356;28;20195;-83
2023/07/10 06:35:34;;;;;;;0.10;0.10;;;26.10;99.90;;;;;;5020033;28;20191;-83
2023/07/10 06:38:00;;;;;;;0.10;0.10;;;26.10;99.90;;;;;;5018354;28;20206;-83
2023/07/10 06:40:25;;;;;;;0.10;0.10;;;26.20;99.90;;;;;;5019462;28;20280;-83
2023/07/10 06:42:51;;;;;;;0.10;0.10;;;26.40;99.90;;;;;;5018381;28;20186;-83
2023/07/10 06:45:17;;;;;;;0.10;0.10;;;26.70;99.90;;;;;;5019680;28;20555;-83
2023/07/10 06:47:44;;;;;;;0.10;0.10;;;26.70;99.90;;;;;;5020059;28;20295;-83
2023/07/10 06:50:12;;;;;;;0.10;0.10;;;26.70;99.90;;;;;;5018763;28;20834;-83
2023/07/10 06:52:39;;;;;;;0.10;0.10;;;26.90;99.90;;;;;;5017912;28;20189;-83
2023/07/10 06:55:06;;;;;;;0.10;0.10;;;26.90;99.90;;;;;;5014871;28;20189;-83
2023/07/10 06:57:33;;;;;;;0.10;0.10;;;27.00;99.90;;;;;;5013555;28;20712;-83
2023/07/10 06:59:58;;;;;;;0.10;0.10;;;27.10;99.90;;;;;;5019464;28;20264;-83
2023/07/10 07:02:24;;;;;;;0.10;0.10;;;27.00;99.90;;;;;;5013725;28;20178;-83
2023/07/10 07:04:49;;;;;;;0.10;0.10;;;27.20;99.90;;;;;;5017161;28;20273;-84
2023/07/10 07:07:15;;;;;;;0.10;0.10;;;26.70;99.90;;;;;;5016854;28;20270;-84
2023/07/10 07:09:42;;;;;;;0.10;0.10;;;26.40;99.90;;;;;;5015486;28;20222;-86
2023/07/10 07:12:09;;;;;;;0.10;0.10;;;26.50;99.90;;;;;;5017711;28;20229;-86
2023/07/10 07:14:35;;;;;;;0.10;0.10;;;26.50;99.90;;;;;;5021002;28;20304;-85
2023/07/10 07:17:01;;;;;;;0.10;0.10;;;26.90;99.90;;;;;;5020244;28;20629;-84
2023/07/10 07:19:26;;;;;;;0.10;0.10;;;27.10;99.90;;;;;;5021754;28;20201;-86
2023/07/10 07:21:52;;;;;;;0.10;0.10;;;26.40;99.90;;;;;;5019282;28;20190;-84
2023/07/10 07:24:17;;;;;;;0.10;0.10;;;26.40;99.90;;;;;;5021080;28;20186;-85
2023/07/10 07:26:43;;;;;;;0.10;0.10;;;26.50;99.90;;;;;;5019822;28;20240;-85
2023/07/10 07:29:08;;;;;;;0.10;0.10;;;26.70;99.90;;;;;;5021646;28;20514;-86
2023/07/10 07:31:34;;;;;;;0.10;0.10;;;26.90;99.90;;;;;;5021855;28;20186;-86
2023/07/10 07:33:59;;;;;;;0.10;0.10;;;27.20;99.90;;;;;;5017612;28;21324;-86
2023/07/10 07:36:25;;;;;;;1.08;1.08;;;27.40;99.90;;;;;;5022547;28;20191;-87
2023/07/10 07:38:50;;;;;;;0.10;0.10;;;27.40;99.90;;;;;;5021518;28;20212;-86
2023/07/10 07:41:16;;;;;;;0.10;0.10;;;27.70;99.90;;;;;;5020783;28;20224;-86
2023/07/10 07:43:42;;;;;;;0.10;0.10;;;27.90;99.90;;;;;;5024941;28;20277;-85
2023/07/10 07:46:07;;;;;;;0.10;0.10;;;28.00;99.90;;;;;;5024754;28;20178;-86
2023/07/10 07:48:33;;;;;;;0.10;0.10;;;28.10;99.90;;;;;;5025254;28;20399;-86
2023/07/10 07:51:04;;;;;;;0.10;0.10;;;28.40;99.90;;;;;;5022688;28;20283;-85
2023/07/10 07:53:32;;;;;;;0.10;0.10;;;28.20;99.90;;;;;;5022415;28;20194;-86
2023/07/10 07:55:58;;;;;;;0.10;0.10;;;28.50;99.90;;;;;;5024097;28;20237;-85
2023/07/10 07:58:24;;;;;;;0.10;0.10;;;28.50;99.90;;;;;;5022671;28;20211;-86
2023/07/10 08:00:50;;;;;;;0.10;0.10;;;28.80;99.90;;;;;;5023336;28;20198;-85
2023/07/10 08:03:15;;;;;;;0.10;0.10;;;28.80;99.90;;;;;;5019617;28;20268;-86
2023/07/10 08:05:41;;;;;;;0.10;0.10;;;28.80;99.90;;;;;;5022389;28;20230;-86
2023/07/10 08:08:10;;;;;;;0.10;0.10;;;28.90;99.90;;;;;;5018947;28;20283;-86
2023/07/10 08:10:38;;;;;;;0.10;0.10;;;29.00;99.90;;;;;;5020383;28;20232;-87
2023/07/10 08:13:04;;;;;;;0.10;0.10;;;28.70;99.90;;;;;;5018470;28;20186;-87
2023/07/10 08:15:30;;;;;;;0.10;0.10;;;28.90;99.90;;;;;;5017156;28;20305;-83
2023/07/10 08:17:56;;;;;;;0.10;0.10;;;28.80;99.90;;;;;;5022066;28;20202;-83
2023/07/10 08:20:22;;;;;;;0.10;0.10;;;28.80;99.90;;;;;;5023323;28;20247;-83
2023/07/10 08:22:48;;;;;;;0.10;0.10;;;28.70;99.90;;;;;;5018731;28;20665;-86
2023/07/10 08:25:13;;;;;;;0.10;0.10;;;28.60;99.90;;;;;;5018525;28;20197;-82
2023/07/10 08:27:40;;;;;;;0.30;0.30;;;28.80;99.90;;;;;;5016806;28;20202;-82
2023/07/10 08:30:07;;;;;;;0.10;0.10;;;28.60;99.90;;;;;;5017853;28;20934;-82
2023/07/10 08:32:33;;;;;;;0.10;0.10;;;27.90;99.90;;;;;;5030396;28;20497;-82
2023/07/10 08:34:58;;;;;;;0.10;0.10;;;27.10;99.90;;;;;;5020739;28;20215;-81
2023/07/10 08:37:24;;;;;;;0.10;0.10;;;27.20;99.90;;;;;;5019743;28;20234;-82
2023/07/10 08:39:49;;;;;;;0.10;0.10;;;27.30;99.90;;;;;;5018876;28;20207;-82
2023/07/10 08:42:19;;;;;;;0.10;0.10;;;27.30;99.90;;;;;;5022631;28;20926;-82
2023/07/10 08:44:48;;;;;;;0.10;0.10;;;27.40;99.90;;;;;;5019475;28;20174;-82
2023/07/10 08:47:30;;;;;;;0.10;0.10;;;27.40;99.90;;;;;;5020971;28;20198;-82
2023/07/10 08:50:18;;;;;;;0.10;0.10;;;27.60;99.90;;;;;;5018174;28;20548;-82
2023/07/10 08:52:49;;;;;;;0.10;0.10;;;27.50;99.90;;;;;;5019579;28;20217;-82
2023/07/10 08:55:27;;;;;;;0.10;0.10;;;27.50;99.90;;;;;;5024397;28;20277;-82
2023/07/10 08:58:02;;;;;;;0.10;0.10;;;27.70;99.90;;;;;;5018734;28;20210;-82
2023/07/10 09:00:33;;;;;;;0.10;0.10;;;28.00;99.90;;;;;;5020162;28;20287;-82
2023/07/10 09:03:09;;;;;;;0.10;0.10;;;28.30;99.90;;;;;;5018647;28;20183;-82
2023/07/10 09:05:37;;;;;;;0.10;0.10;;;28.70;99.90;;;;;;5021787;28;20201;-82
2023/07/10 09:08:09;;;;;;;0.10;0.10;;;28.60;99.90;;;;;;5021958;28;20289;-82
2023/07/10 09:10:40;;;;;;;0.10;0.10;;;28.60;99.90;;;;;;5018332;28;20205;-82
2023/07/10 09:13:13;;;;;;;0.10;0.10;;;28.50;99.90;;;;;;5020389;28;20201;-82
2023/07/10 09:15:50;;;;;;;0.10;0.10;;;28.20;99.90;;;;;;5020100;28;20563;-82
2023/07/10 09:18:32;;;;;;;0.10;0.10;;;28.30;99.90;;;;;;5022169;28;20209;-83
2023/07/10 09:21:00;;;;;;;0.10;0.10;;;28.40;99.90;;;;;;5019613;28;20202;-82
2023/07/10 09:23:30;;;;;;;0.10;0.10;;;28.60;99.90;;;;;;5032278;28;21058;-82
2023/07/10 09:26:01;;;;;;;0.10;0.10;;;28.20;99.90;;;;;;5024511;28;20197;-82
2023/07/10 09:28:27;;;;;;;0.10;0.10;;;28.40;99.90;;;;;;5019401;28;21315;-82
2023/07/10 09:31:12;;;;;;;0.10;0.10;;;28.50;99.90;;;;;;5020836;28;20280;-82
2023/07/10 09:33:52;;;;;;;0.10;0.10;;;28.80;99.90;;;;;;5018204;28;20187;-82
2023/07/10 09:36:21;;;;;;;0.10;0.10;;;28.70;99.90;;;;;;5019396;28;20193;-82
2023/07/10 09:38:48;;;;;;;0.10;0.10;;;29.10;99.90;;;;;;5019033;28;20218;-82
2023/07/10 09:41:26;;;;;;;0.10;0.10;;;29.50;99.90;;;;;;5020436;28;20183;-82
2023/07/10 09:44:00;;;;;;;0.10;0.10;;;29.20;99.90;;;;;;5021694;28;20193;-82
2023/07/10 09:46:31;;;;;;;0.10;0.10;;;29.20;99.90;;;;;;5022988;28;20183;-82
2023/07/10 09:49:00;;;;;;;0.10;0.10;;;29.30;99.90;;;;;;5018553;28;20217;-81
2023/07/10 09:51:27;;;;;;;0.10;0.10;;;29.50;99.90;;;;;;5022070;28;20190;-81
2023/07/10 09:54:02;;;;;;;0.10;0.10;;;29.60;99.90;;;;;;5020937;28;20193;-82
2023/07/10 09:56:35;;;;;;;0.10;0.10;;;29.50;99.90;;;;;;5020427;28;20231;-82
2023/07/10 09:59:02;;;;;;;0.10;0.10;;;28.90;99.90;;;;;;5019196;28;20214;-83
2023/07/10 10:01:30;;;;;;;0.10;0.10;;;29.10;99.90;;;;;;5021352;28;20214;-83
2023/07/10 10:03:56;;;;;;;0.10;0.10;;;29.00;99.90;;;;;;5017497;28;20198;-82
2023/07/10 10:06:28;;;;;;;0.10;0.10;;;28.30;99.90;;;;;;5019321;28;20285;-82
2023/07/10 10:08:54;;;;;;;0.10;0.10;;;28.00;99.90;;;;;;5020194;28;20241;-82
2023/07/10 10:11:41;;;;;;;0.10;0.10;;;27.60;99.90;;;;;;5019177;28;20210;-82
2023/07/10 10:14:13;;;;;;;0.10;0.10;;;27.90;99.90;;;;;;5022399;28;20426;-82
2023/07/10 10:16:49;;;;;;;0.10;0.10;;;27.70;99.90;;;;;;5018848;28;20225;-82
2023/07/10 10:19:30;;;;;;;0.10;0.10;;;28.20;99.90;;;;;;5019630;28;20651;-82
2023/07/10 10:21:56;;;;;;;0.10;0.10;;;28.40;99.90;;;;;;5019924;28;20179;-83
2023/07/10 10:24:22;;;;;;;11.40;2.08;;;28.00;99.90;;;;;;5019922;28;20186;-82
2023/07/10 10:27:09;;;;;;;0.10;0.10;;;27.50;99.90;;;;;;5021225;28;20188;-82
2023/07/10 10:30:01;;;;;;;0.10;0.10;;;28.10;99.90;;;;;;5017833;28;20332;-82
2023/07/10 10:32:32;;;;;;;0.10;0.10;;;29.10;99.90;;;;;;5020033;28;20182;-83
2023/07/10 10:35:35;;;;;;;0.10;0.10;;;29.40;99.90;;;;;;5018658;28;20186;-83
2023/07/10 10:38:14;;;;;;;0.10;0.10;;;29.50;99.90;;;;;;5015315;28;20249;-82
2023/07/10 10:40:58;;;;;;;0.10;0.10;;;30.20;99.90;;;;;;5019605;28;20626;-83
2023/07/10 10:43:33;;;;;;;0.10;0.10;;;30.10;99.90;;;;;;5019247;28;20241;-82
2023/07/10 10:46:18;;;;;;;0.50;0.50;;;29.60;99.90;;;;;;5019613;28;20181;-83
2023/07/10 10:49:08;;;;;;;0.10;0.10;;;30.20;99.90;;;;;;5020334;28;20251;-82
2023/07/10 10:51:42;;;;;;;0.10;0.10;;;30.60;99.90;;;;;;5022587;28;20194;-82
2023/07/10 10:54:13;;;;;;;0.10;0.10;;;30.60;99.90;;;;;;5021752;28;20178;-82
2023/07/10 10:56:44;;;;;;;0.10;0.10;;;30.60;99.90;;;;;;5021814;28;20182;-83
2023/07/10 10:59:35;;;;;;;0.10;0.10;;;30.90;99.90;;;;;;5022767;28;20214;-83
2023/07/10 11:02:03;;;;;;;0.10;0.10;;;30.80;99.90;;;;;;5017191;28;20183;-83
2023/07/10 11:04:37;;;;;;;0.10;0.10;;;30.40;99.90;;;;;;5020985;28;20182;-82
2023/07/10 11:07:13;;;;;;;0.10;0.10;;;30.50;99.90;;;;;;5018984;28;20594;-83
2023/07/10 11:09:48;;;;;;;0.10;0.10;;;30.40;99.90;;;;;;5022812;28;20182;-83
2023/07/10 11:12:20;;;;;;;0.10;0.10;;;29.80;99.90;;;;;;5018612;28;20194;-83
2023/07/10 11:14:48;;;;;;;0.10;0.10;;;29.60;99.90;;;;;;5022671;28;20197;-83
2023/07/10 11:17:14;;;;;;;0.10;0.10;;;29.60;99.90;;;;;;5020299;28;20668;-82
2023/07/10 11:19:40;;;;;;;0.10;0.10;;;30.00;99.90;;;;;;5023003;28;20206;-83
2023/07/10 11:22:25;;;;;;;0.10;0.10;;;30.40;99.90;;;;;;5023077;28;20218;-82
2023/07/10 11:24:52;;;;;;;0.10;0.10;;;30.00;99.90;;;;;;5023330;28;20178;-82
2023/07/10 11:27:43;;;;;;;0.10;0.10;;;30.40;99.90;;;;;;5022008;28;20202;-82
2023/07/10 11:30:14;;;;;;;0.10;0.10;;;30.30;99.90;;;;;;5023061;28;20191;-82
2023/07/10 11:33:01;;;;;;;0.10;0.10;;;31.00;99.90;;;;;;5021577;28;20190;-82
2023/07/10 11:35:26;;;;;;;0.10;0.10;;;31.20;99.90;;;;;;5025113;28;20194;-82
2023/07/10 11:37:52;;;;;;;0.10;0.10;;;31.50;99.90;;;;;;5025199;28;20213;-82
2023/07/10 11:40:23;;;;;;;0.10;0.10;;;31.40;99.90;;;;;;5025998;28;20210;-82
2023/07/10 11:42:49;;;;;;;0.10;0.10;;;31.50;99.90;;;;;;5026210;28;20187;-82
2023/07/10 11:45:16;;;;;;;0.10;0.10;;;31.20;99.90;;;;;;5026315;28;20175;-83
2023/07/10 11:47:44;;;;;;;0.10;0.10;;;31.20;99.90;;;;;;5019161;28;20199;-82
2023/07/10 11:50:22;;;;;;;0.10;0.10;;;31.00;99.90;;;;;;5026452;28;20193;-83
2023/07/10 11:53:25;;;;;;;0.10;0.10;;;30.40;99.90;;;;;;5023943;28;20206;-85
2023/07/10 11:56:06;;;;;;;0.10;0.10;;;30.00;99.90;;;;;;5025902;28;20206;-83
2023/07/10 11:58:33;;;;;;;0.10;0.10;;;30.70;99.90;;;;;;5024231;28;20221;-82
2023/07/10 12:01:21;;;;;;;0.10;0.10;;;30.60;99.90;;;;;;5024703;28;20209;-83
2023/07/10 12:03:47;;;;;;;0.10;0.10;;;30.70;99.90;;;;;;5025024;28;20182;-82
2023/07/10 12:06:21;;;;;;;0.10;0.10;;;30.40;99.90;;;;;;5021460;28;20205;-83
2023/07/10 12:08:49;;;;;;;0.10;0.10;;;29.60;99.90;;;;;;5023203;28;20206;-83
2023/07/10 12:11:26;;;;;;;0.10;0.10;;;29.50;99.90;;;;;;5033222;28;20182;-82
2023/07/10 12:13:52;;;;;;;0.10;0.10;;;29.20;99.90;;;;;;5030456;28;20191;-85
2023/07/10 12:16:18;;;;;;;0.10;0.10;;;28.60;99.90;;;;;;5030708;28;20830;-83
2023/07/10 12:18:43;;;;;;;0.10;0.10;;;29.20;99.90;;;;;;5027087;28;20221;-83
2023/07/10 12:21:20;;;;;;;0.10;0.10;;;29.20;99.90;;;;;;5028921;28;20213;-84
2023/07/10 12:24:02;;;;;;;0.10;0.10;;;28.80;99.90;;;;;;5023476;28;20277;-84
2023/07/10 12:26:28;;;;;;;0.10;0.10;;;29.00;99.90;;;;;;5030128;28;20189;-82
2023/07/10 12:28:55;;;;;;;0.10;0.10;;;29.60;99.90;;;;;;5024612;28;20210;-83
2023/07/10 12:31:21;;;;;;;0.10;0.10;;;30.00;99.90;;;;;;5026821;28;20621;-83
2023/07/10 12:33:50;;;;;;;0.10;0.10;;;30.40;99.90;;;;;;5024990;28;20202;-83
2023/07/10 12:36:26;;;;;;;0.10;0.10;;;30.70;99.90;;;;;;5024121;28;20190;-84
2023/07/10 12:38:54;;;;;;;0.10;0.10;;;31.10;99.90;;;;;;5020998;28;20211;-85
2023/07/10 12:41:22;;;;;;;0.10;0.10;;;31.20;99.90;;;;;;5022946;28;20540;-83
2023/07/10 12:43:55;;;;;;;0.10;0.10;;;31.10;99.90;;;;;;5029720;28;20186;-83
2023/07/10 12:46:26;;;;;;;0.10;0.10;;;31.60;99.90;;;;;;5023293;28;20195;-83
2023/07/10 12:49:01;;;;;;;0.10;0.10;;;31.80;99.90;;;;;;5026207;28;20739;-83
2023/07/10 12:51:29;;;;;;;0.10;0.10;;;31.90;99.90;;;;;;5025145;28;20174;-83
2023/07/10 12:53:59;;;;;;;0.10;0.10;;;32.00;99.90;;;;;;5022248;28;20210;-82
2023/07/10 12:56:27;;;;;;;0.10;0.10;;;32.30;99.90;;;;;;5023165;28;20649;-82
2023/07/10 12:58:55;;;;;;;0.10;0.10;;;32.30;99.90;;;;;;5023772;28;20234;-83